Portada
METAR-TAF:

METAR-TAF

Aeropuertos :

Aeropuerto de Gibraltar

Gibraltar, Gibraltar

latitud: 36-09N, longitud: 005-21W, altitud: 5 m

Observación

El informe se hizo hace 53 minutos, a las 04:50 UTC
Viento 2 kt del oeste
Temperatura 18°C
Humedad 94%
Presión 1015 hPa
Visibilidad: 7000 m
Escasas nubes a una altura de 1000 ft
Nubes dispersas a una altura de 20000 ft
calima

METAR: LXGB 020450Z 27002KT 7000 HZ FEW010 SCT200 18/17 Q1015 RMK WHT

Hora: 07:43 (05:43 UTC)

Pronóstico

El informe se hizo hace 47 minutos, a las 04:56 UTC
Pronóstico válido del 02 a las 06 UTC al 02 a las 15 UTC
Viento 3 kt con dirección variable
Visibilidad: 6000 m
Escasas nubes a una altura de 1000 ft
calima
Temporalmente
del 02 a las 06 UTC al 02 a las 09 UTC
Visibilidad 10 km o más
Evolucionando progresivamente
del 02 a las 09 UTC al 02 a las 12 UTC
Visibilidad 10 km o más

TAF: LXGB 020456Z 0206/0215 VRB03KT 6000 HZ FEW010 TEMPO 0206/0209 9999 NSW BECMG 0209/0212 9999 NSW

Observaciones y pronósticos meteorológicos de más de 4000 aeropuertos (mensajes METAR y TAF).

Los puntos amarillos y rojos representan las estaciones disponibles.

Ponga el ratón en el punto deseado para ver el nombre de la estación.

Haga clic para ver las observaciones y los pronósticos meteorológicos.

Para cambiar el mapa : haga clic en los botones verdes con una cruz de color negro para hacer un zoom, en el botón verde con un guión para alejar o en las flechas verdes para mapas adyacentes.


METAR-TAF: